sensor_id;sensor_type;location;lat;lon;timestamp;pressure;altitude;pressure_sealevel;temperature;humidity
22283;BME280;11310;51.528;21.204;2023-04-10T00:01:24;100730.00;;;6.70;100.00
22283;BME280;11310;51.528;21.204;2023-04-10T00:03:53;100731.78;;;6.69;100.00
22283;BME280;11310;51.528;21.204;2023-04-10T00:06:24;100720.56;;;6.64;100.00
22283;BME280;11310;51.528;21.204;2023-04-10T00:08:54;100720.59;;;6.63;100.00
22283;BME280;11310;51.528;21.204;2023-04-10T00:11:23;100713.66;;;6.63;100.00
22283;BME280;11310;51.528;21.204;2023-04-10T00:13:51;100720.63;;;6.61;100.00
22283;BME280;11310;51.528;21.204;2023-04-10T00:16:22;100711.06;;;6.62;100.00
22283;BME280;11310;51.528;21.204;2023-04-10T00:18:51;100716.31;;;6.60;100.00
22283;BME280;11310;51.528;21.204;2023-04-10T00:21:20;100713.72;;;6.59;100.00
22283;BME280;11310;51.528;21.204;2023-04-10T00:23:49;100714.66;;;6.55;100.00
22283;BME280;11310;51.528;21.204;2023-04-10T00:26:17;100714.75;;;6.50;100.00
22283;BME280;11310;51.528;21.204;2023-04-10T00:28:47;100718.31;;;6.45;100.00
22283;BME280;11310;51.528;21.204;2023-04-10T00:31:16;100716.66;;;6.41;100.00
22283;BME280;11310;51.528;21.204;2023-04-10T00:33:46;100716.69;;;6.38;100.00
22283;BME280;11310;51.528;21.204;2023-04-10T00:36:16;100723.72;;;6.36;100.00
22283;BME280;11310;51.528;21.204;2023-04-10T00:38:46;100715.13;;;6.31;100.00
22283;BME280;11310;51.528;21.204;2023-04-10T00:41:15;100710.88;;;6.25;100.00
22283;BME280;11310;51.528;21.204;2023-04-10T00:43:44;100709.25;;;6.20;100.00
22283;BME280;11310;51.528;21.204;2023-04-10T00:46:13;100704.09;;;6.15;100.00
22283;BME280;11310;51.528;21.204;2023-04-10T00:48:42;100703.22;;;6.15;100.00
22283;BME280;11310;51.528;21.204;2023-04-10T00:51:12;100708.34;;;6.21;100.00
22283;BME280;11310;51.528;21.204;2023-04-10T00:53:41;100708.34;;;6.21;100.00
22283;BME280;11310;51.528;21.204;2023-04-10T00:56:12;100718.00;;;6.14;100.00
22283;BME280;11310;51.528;21.204;2023-04-10T00:58:42;100707.75;;;6.05;100.00
22283;BME280;11310;51.528;21.204;2023-04-10T01:01:11;100715.72;;;5.95;100.00
22283;BME280;11310;51.528;21.204;2023-04-10T01:03:41;100712.38;;;5.87;100.00
22283;BME280;11310;51.528;21.204;2023-04-10T01:06:17;100705.56;;;5.78;100.00
22283;BME280;11310;51.528;21.204;2023-04-10T01:08:56;100711.69;;;5.76;100.00
22283;BME280;11310;51.528;21.204;2023-04-10T01:11:38;100710.00;;;5.72;100.00
22283;BME280;11310;51.528;21.204;2023-04-10T01:14:19;100706.53;;;5.71;100.00
22283;BME280;11310;51.528;21.204;2023-04-10T01:16:53;100708.34;;;5.66;100.00
22283;BME280;11310;51.528;21.204;2023-04-10T01:19:37;100705.75;;;5.65;100.00
22283;BME280;11310;51.528;21.204;2023-04-10T01:22:14;100707.53;;;5.63;100.00
22283;BME280;11310;51.528;21.204;2023-04-10T01:24:55;100712.78;;;5.60;100.00
22283;BME280;11310;51.528;21.204;2023-04-10T01:27:39;100705.06;;;5.55;100.00
22283;BME280;11310;51.528;21.204;2023-04-10T01:30:16;100702.44;;;5.57;100.00
22283;BME280;11310;51.528;21.204;2023-04-10T01:32:47;100700.72;;;5.56;100.00
22283;BME280;11310;51.528;21.204;2023-04-10T01:35:20;100708.63;;;5.48;100.00
22283;BME280;11310;51.528;21.204;2023-04-10T01:37:50;100712.22;;;5.40;100.00
22283;BME280;11310;51.528;21.204;2023-04-10T01:40:21;100713.19;;;5.33;100.00
22283;BME280;11310;51.528;21.204;2023-04-10T01:42:54;100715.06;;;5.23;100.00
22283;BME280;11310;51.528;21.204;2023-04-10T01:45:32;100714.28;;;5.18;100.00
22283;BME280;11310;51.528;21.204;2023-04-10T01:48:01;100721.28;;;5.12;100.00
22283;BME280;11310;51.528;21.204;2023-04-10T01:50:30;100711.81;;;5.08;100.00
22283;BME280;11310;51.528;21.204;2023-04-10T01:53:02;100714.44;;;5.05;100.00
22283;BME280;11310;51.528;21.204;2023-04-10T01:55:32;100714.41;;;5.06;100.00
22283;BME280;11310;51.528;21.204;2023-04-10T01:58:06;100710.97;;;5.06;100.00
22283;BME280;11310;51.528;21.204;2023-04-10T02:00:39;100717.03;;;5.05;100.00
22283;BME280;11310;51.528;21.204;2023-04-10T02:03:10;100708.25;;;5.15;100.00
22283;BME280;11310;51.528;21.204;2023-04-10T02:05:51;100703.78;;;5.24;100.00
22283;BME280;11310;51.528;21.204;2023-04-10T02:08:26;100711.41;;;5.38;100.00
22283;BME280;11310;51.528;21.204;2023-04-10T02:11:10;100704.16;;;5.58;100.00
22283;BME280;11310;51.528;21.204;2023-04-10T02:13:41;100712.72;;;5.66;100.00
22283;BME280;11310;51.528;21.204;2023-04-10T02:16:12;100714.56;;;5.58;100.00
22283;BME280;11310;51.528;21.204;2023-04-10T02:18:44;100718.31;;;5.40;100.00
22283;BME280;11310;51.528;21.204;2023-04-10T02:21:14;100708.88;;;5.30;100.00
22283;BME280;11310;51.528;21.204;2023-04-10T02:23:43;100707.22;;;5.26;100.00
22283;BME280;11310;51.528;21.204;2023-04-10T02:26:14;100708.06;;;5.27;100.00
22283;BME280;11310;51.528;21.204;2023-04-10T02:28:43;100707.97;;;5.33;100.00
22283;BME280;11310;51.528;21.204;2023-04-10T02:31:13;100707.94;;;5.36;100.00
22283;BME280;11310;51.528;21.204;2023-04-10T02:33:42;100712.44;;;5.26;100.00
22283;BME280;11310;51.528;21.204;2023-04-10T02:36:12;100707.31;;;5.19;100.00
22283;BME280;11310;51.528;21.204;2023-04-10T02:38:41;100712.59;;;5.14;100.00
22283;BME280;11310;51.528;21.204;2023-04-10T02:41:14;100702.22;;;5.11;100.00
22283;BME280;11310;51.528;21.204;2023-04-10T02:43:43;100706.59;;;5.08;100.00
22283;BME280;11310;51.528;21.204;2023-04-10T02:46:11;100717.91;;;5.04;100.00
22283;BME280;11310;51.528;21.204;2023-04-10T02:48:42;100711.91;;;4.99;100.00
22283;BME280;11310;51.528;21.204;2023-04-10T02:51:11;100713.72;;;4.94;100.00
22283;BME280;11310;51.528;21.204;2023-04-10T02:53:40;100717.13;;;4.96;100.00
22283;BME280;11310;51.528;21.204;2023-04-10T02:56:14;100723.19;;;4.98;100.00
22283;BME280;11310;51.528;21.204;2023-04-10T02:58:44;100708.44;;;5.00;100.00
22283;BME280;11310;51.528;21.204;2023-04-10T03:01:14;100704.81;;;5.10;100.00
22283;BME280;11310;51.528;21.204;2023-04-10T03:03:48;100709.00;;;5.23;100.00
22283;BME280;11310;51.528;21.204;2023-04-10T03:06:25;100707.97;;;5.33;100.00
22283;BME280;11310;51.528;21.204;2023-04-10T03:08:56;100708.59;;;5.50;100.00
22283;BME280;11310;51.528;21.204;2023-04-10T03:11:26;100712.75;;;5.63;100.00
22283;BME280;11310;51.528;21.204;2023-04-10T03:13:54;100704.03;;;5.64;100.00
22283;BME280;11310;51.528;21.204;2023-04-10T03:16:24;100719.06;;;5.47;100.00
22283;BME280;11310;51.528;21.204;2023-04-10T03:18:54;100714.00;;;5.38;100.00
22283;BME280;11310;51.528;21.204;2023-04-10T03:21:23;100707.06;;;5.37;100.00
22283;BME280;11310;51.528;21.204;2023-04-10T03:23:53;100712.34;;;5.32;100.00
22283;BME280;11310;51.528;21.204;2023-04-10T03:26:22;100715.09;;;5.19;100.00
22283;BME280;11310;51.528;21.204;2023-04-10T03:28:51;100706.56;;;5.12;100.00
22283;BME280;11310;51.528;21.204;2023-04-10T03:31:20;100710.03;;;5.10;100.00
22283;BME280;11310;51.528;21.204;2023-04-10T03:33:55;100718.72;;;5.09;100.00
22283;BME280;11310;51.528;21.204;2023-04-10T03:36:25;100721.41;;;5.01;100.00
22283;BME280;11310;51.528;21.204;2023-04-10T03:38:54;100718.16;;;4.84;100.00
22283;BME280;11310;51.528;21.204;2023-04-10T03:41:24;100726.16;;;4.68;100.00
22283;BME280;11310;51.528;21.204;2023-04-10T03:43:54;100722.81;;;4.57;100.00
22283;BME280;11310;51.528;21.204;2023-04-10T03:46:24;100716.00;;;4.48;100.00
22283;BME280;11310;51.528;21.204;2023-04-10T03:48:55;100709.13;;;4.43;100.00
22283;BME280;11310;51.528;21.204;2023-04-10T03:51:24;100716.13;;;4.35;100.00
22283;BME280;11310;51.528;21.204;2023-04-10T03:53:53;100712.72;;;4.30;100.00
22283;BME280;11310;51.528;21.204;2023-04-10T03:56:22;100711.00;;;4.29;100.00
22283;BME280;11310;51.528;21.204;2023-04-10T03:58:52;100712.66;;;4.34;100.00
22283;BME280;11310;51.528;21.204;2023-04-10T04:01:22;100716.84;;;4.46;100.00
22283;BME280;11310;51.528;21.204;2023-04-10T04:04:00;100715.03;;;4.55;100.00
22283;BME280;11310;51.528;21.204;2023-04-10T04:06:47;100718.44;;;4.60;100.00
22283;BME280;11310;51.528;21.204;2023-04-10T04:09:19;100719.16;;;4.73;100.00
22283;BME280;11310;51.528;21.204;2023-04-10T04:12:23;100720.13;;;4.64;100.00
22283;BME280;11310;51.528;21.204;2023-04-10T04:15:05;100715.88;;;4.57;100.00
22283;BME280;11310;51.528;21.204;2023-04-10T04:17:48;100711.59;;;4.53;100.00
22283;BME280;11310;51.528;21.204;2023-04-10T04:20:39;100715.91;;;4.56;100.00
22283;BME280;11310;51.528;21.204;2023-04-10T04:23:19;100715.94;;;4.50;100.00
22283;BME280;11310;51.528;21.204;2023-04-10T04:26:08;100725.41;;;4.57;100.00
22283;BME280;11310;51.528;21.204;2023-04-10T04:28:50;100723.56;;;4.66;100.00
22283;BME280;11310;51.528;21.204;2023-04-10T04:31:41;100732.28;;;4.62;100.00
22283;BME280;11310;51.528;21.204;2023-04-10T04:34:37;100741.00;;;4.57;100.00
22283;BME280;11310;51.528;21.204;2023-04-10T04:37:27;100743.59;;;4.57;100.00
22283;BME280;11310;51.528;21.204;2023-04-10T04:40:14;100750.53;;;4.55;100.00
22283;BME280;11310;51.528;21.204;2023-04-10T04:43:06;100752.31;;;4.53;100.00
22283;BME280;11310;51.528;21.204;2023-04-10T04:45:58;100752.31;;;4.53;100.00
22283;BME280;11310;51.528;21.204;2023-04-10T04:48:38;100750.53;;;4.55;100.00
22283;BME280;11310;51.528;21.204;2023-04-10T04:51:27;100764.38;;;4.58;100.00
22283;BME280;11310;51.528;21.204;2023-04-10T04:54:17;100777.28;;;4.66;100.00
22283;BME280;11310;51.528;21.204;2023-04-10T04:56:51;100774.63;;;4.69;100.00
22283;BME280;11310;51.528;21.204;2023-04-10T04:59:40;100783.31;;;4.68;100.00
22283;BME280;11310;51.528;21.204;2023-04-10T05:02:30;100776.47;;;4.61;100.00
22283;BME280;11310;51.528;21.204;2023-04-10T05:05:06;100781.69;;;4.58;100.00
22283;BME280;11310;51.528;21.204;2023-04-10T05:07:43;100783.41;;;4.60;100.00
22283;BME280;11310;51.528;21.204;2023-04-10T05:10:34;100784.19;;;4.67;100.00
22283;BME280;11310;51.528;21.204;2023-04-10T05:13:13;100795.38;;;4.73;100.00
22283;BME280;11310;51.528;21.204;2023-04-10T05:15:55;100795.38;;;4.73;100.00
22283;BME280;11310;51.528;21.204;2023-04-10T05:18:50;100807.47;;;4.79;100.00
22283;BME280;11310;51.528;21.204;2023-04-10T05:21:40;100799.59;;;4.85;100.00
22283;BME280;11310;51.528;21.204;2023-04-10T05:24:27;100803.81;;;4.95;100.00
22283;BME280;11310;51.528;21.204;2023-04-10T05:27:17;100794.97;;;5.11;100.00
22283;BME280;11310;51.528;21.204;2023-04-10T05:30:14;100786.09;;;5.27;100.00
22283;BME280;11310;51.528;21.204;2023-04-10T05:33:01;100787.63;;;5.43;100.00
22283;BME280;11310;51.528;21.204;2023-04-10T05:35:47;100780.50;;;5.57;100.00
22283;BME280;11310;51.528;21.204;2023-04-10T05:38:30;100786.31;;;5.74;100.00
22283;BME280;11310;51.528;21.204;2023-04-10T05:41:17;100782.63;;;5.93;100.00
22283;BME280;11310;51.528;21.204;2023-04-10T05:44:17;100787.63;;;6.05;100.00
22283;BME280;11310;51.528;21.204;2023-04-10T05:47:24;100783.13;;;6.14;100.00
22283;BME280;11310;51.528;21.204;2023-04-10T05:50:09;100785.50;;;6.28;100.00
22283;BME280;11310;51.528;21.204;2023-04-10T05:52:53;100785.28;;;6.41;100.00
22283;BME280;11310;51.528;21.204;2023-04-10T05:55:48;100790.09;;;6.64;100.00
22283;BME280;11310;51.528;21.204;2023-04-10T05:58:46;100793.91;;;6.92;100.00
22283;BME280;11310;51.528;21.204;2023-04-10T06:01:35;100798.59;;;7.19;100.00
22283;BME280;11310;51.528;21.204;2023-04-10T06:04:04;100789.22;;;7.50;100.00
22283;BME280;11310;51.528;21.204;2023-04-10T06:06:34;100808.78;;;7.72;100.00
22283;BME280;11310;51.528;21.204;2023-04-10T06:09:03;100810.03;;;7.92;100.00
22283;BME280;11310;51.528;21.204;2023-04-10T06:11:33;100804.44;;;8.09;100.00
22283;BME280;11310;51.528;21.204;2023-04-10T06:14:02;100807.44;;;8.29;100.00
22283;BME280;11310;51.528;21.204;2023-04-10T06:16:42;100812.16;;;8.50;100.00
22283;BME280;11310;51.528;21.204;2023-04-10T06:19:11;100809.09;;;8.66;100.00
22283;BME280;11310;51.528;21.204;2023-04-10T06:21:40;100811.28;;;8.83;100.00
22283;BME280;11310;51.528;21.204;2023-04-10T06:24:11;100811.56;;;9.04;100.00
22283;BME280;11310;51.528;21.204;2023-04-10T06:26:40;100809.31;;;9.23;100.00
22283;BME280;11310;51.528;21.204;2023-04-10T06:29:08;100804.38;;;9.41;100.00
22283;BME280;11310;51.528;21.204;2023-04-10T06:31:38;100804.66;;;9.63;100.00
22283;BME280;11310;51.528;21.204;2023-04-10T06:34:09;100802.34;;;9.80;100.00
22283;BME280;11310;51.528;21.204;2023-04-10T06:36:48;100807.88;;;10.00;100.00
22283;BME280;11310;51.528;21.204;2023-04-10T06:39:17;100807.38;;;10.16;100.00
22283;BME280;11310;51.528;21.204;2023-04-10T06:41:45;100807.72;;;10.32;100.00
22283;BME280;11310;51.528;21.204;2023-04-10T06:44:37;100807.00;;;10.53;100.00
22283;BME280;11310;51.528;21.204;2023-04-10T06:47:06;100804.78;;;10.67;100.00
22283;BME280;11310;51.528;21.204;2023-04-10T06:49:37;100804.97;;;10.87;100.00
22283;BME280;11310;51.528;21.204;2023-04-10T06:52:06;100803.19;;;11.12;100.00
22283;BME280;11310;51.528;21.204;2023-04-10T06:54:37;100802.19;;;11.39;100.00
22283;BME280;11310;51.528;21.204;2023-04-10T06:57:06;100795.06;;;11.65;100.00
22283;BME280;11310;51.528;21.204;2023-04-10T06:59:38;100801.81;;;11.94;100.00
22283;BME280;11310;51.528;21.204;2023-04-10T07:02:06;100807.09;;;12.16;100.00
22283;BME280;11310;51.528;21.204;2023-04-10T07:04:37;100798.41;;;12.35;100.00
22283;BME280;11310;51.528;21.204;2023-04-10T07:07:05;100807.06;;;12.59;100.00
22283;BME280;11310;51.528;21.204;2023-04-10T07:09:36;100804.50;;;12.77;100.00
22283;BME280;11310;51.528;21.204;2023-04-10T07:12:05;100805.81;;;12.87;100.00
22283;BME280;11310;51.528;21.204;2023-04-10T07:14:33;100807.69;;;13.05;100.00
22283;BME280;11310;51.528;21.204;2023-04-10T07:17:02;100804.13;;;13.26;100.00
22283;BME280;11310;51.528;21.204;2023-04-10T07:19:31;100810.22;;;13.47;100.00
22283;BME280;11310;51.528;21.204;2023-04-10T07:22:02;100807.56;;;13.65;100.00
22283;BME280;11310;51.528;21.204;2023-04-10T07:24:31;100805.38;;;13.75;100.00
22283;BME280;11310;51.528;21.204;2023-04-10T07:26:59;100810.59;;;13.76;100.00
22283;BME280;11310;51.528;21.204;2023-04-10T07:29:31;100815.31;;;13.88;100.00
22283;BME280;11310;51.528;21.204;2023-04-10T07:32:00;100809.13;;;14.06;100.00
22283;BME280;11310;51.528;21.204;2023-04-10T07:34:30;100815.06;;;14.30;99.71
22283;BME280;11310;51.528;21.204;2023-04-10T07:36:58;100806.47;;;14.43;99.40
22283;BME280;11310;51.528;21.204;2023-04-10T07:39:29;100817.03;;;14.60;98.03
22283;BME280;11310;51.528;21.204;2023-04-10T07:41:58;100822.81;;;14.68;96.44
22283;BME280;11310;51.528;21.204;2023-04-10T07:44:27;100810.63;;;14.83;96.74
22283;BME280;11310;51.528;21.204;2023-04-10T07:46:56;100815.19;;;14.96;94.83
22283;BME280;11310;51.528;21.204;2023-04-10T07:49:26;100815.66;;;15.04;95.04
22283;BME280;11310;51.528;21.204;2023-04-10T07:51:55;100812.41;;;15.16;92.90
22283;BME280;11310;51.528;21.204;2023-04-10T07:54:24;100822.91;;;15.33;92.88
22283;BME280;11310;51.528;21.204;2023-04-10T07:56:54;100815.06;;;15.49;90.90
22283;BME280;11310;51.528;21.204;2023-04-10T07:59:23;100815.00;;;15.66;90.35
22283;BME280;11310;51.528;21.204;2023-04-10T08:01:52;100820.59;;;15.92;90.27
22283;BME280;11310;51.528;21.204;2023-04-10T08:04:23;100804.78;;;16.06;89.05
22283;BME280;11310;51.528;21.204;2023-04-10T08:06:53;100814.19;;;16.27;88.02
22283;BME280;11310;51.528;21.204;2023-04-10T08:09:22;100814.88;;;16.46;87.20
22283;BME280;11310;51.528;21.204;2023-04-10T08:11:50;100814.84;;;16.62;87.19
22283;BME280;11310;51.528;21.204;2023-04-10T08:14:21;100806.28;;;16.72;86.34
22283;BME280;11310;51.528;21.204;2023-04-10T08:16:50;100804.13;;;16.79;85.57
22283;BME280;11310;51.528;21.204;2023-04-10T08:19:19;100804.31;;;16.90;84.27
22283;BME280;11310;51.528;21.204;2023-04-10T08:21:48;100807.00;;;17.04;83.97
22283;BME280;11310;51.528;21.204;2023-04-10T08:24:17;100805.16;;;17.20;82.71
22283;BME280;11310;51.528;21.204;2023-04-10T08:26:51;100808.06;;;17.29;82.06
22283;BME280;11310;51.528;21.204;2023-04-10T08:29:21;100803.75;;;17.42;80.27
22283;BME280;11310;51.528;21.204;2023-04-10T08:31:50;100802.06;;;17.55;80.27
22283;BME280;11310;51.528;21.204;2023-04-10T08:34:19;100798.28;;;17.59;78.93
22283;BME280;11310;51.528;21.204;2023-04-10T08:36:50;100811.88;;;17.81;78.98
22283;BME280;11310;51.528;21.204;2023-04-10T08:39:20;100796.78;;;17.96;78.11
22283;BME280;11310;51.528;21.204;2023-04-10T08:41:48;100799.59;;;18.21;77.92
22283;BME280;11310;51.528;21.204;2023-04-10T08:44:17;100795.03;;;18.49;76.83
22283;BME280;11310;51.528;21.204;2023-04-10T08:46:49;100796.47;;;18.67;75.40
22283;BME280;11310;51.528;21.204;2023-04-10T08:49:26;100796.63;;;18.78;73.26
22283;BME280;11310;51.528;21.204;2023-04-10T08:51:58;100790.34;;;18.79;74.84
22283;BME280;11310;51.528;21.204;2023-04-10T08:54:33;100793.34;;;19.00;74.12
22283;BME280;11310;51.528;21.204;2023-04-10T08:57:05;100791.56;;;19.25;72.96
22283;BME280;11310;51.528;21.204;2023-04-10T08:59:38;100788.59;;;19.42;72.37
22283;BME280;11310;51.528;21.204;2023-04-10T09:02:09;100786.25;;;19.63;70.13
22283;BME280;11310;51.528;21.204;2023-04-10T09:04:39;100781.53;;;19.66;68.66
22283;BME280;11310;51.528;21.204;2023-04-10T09:07:07;100787.69;;;19.79;69.63
22283;BME280;11310;51.528;21.204;2023-04-10T09:09:36;100798.72;;;20.11;68.54
22283;BME280;11310;51.528;21.204;2023-04-10T09:12:05;100793.72;;;20.30;67.45
22283;BME280;11310;51.528;21.204;2023-04-10T09:14:35;100785.16;;;20.37;67.23
22283;BME280;11310;51.528;21.204;2023-04-10T09:17:17;100788.13;;;20.45;62.02
22283;BME280;11310;51.528;21.204;2023-04-10T09:19:47;100783.09;;;20.64;65.37
22283;BME280;11310;51.528;21.204;2023-04-10T09:22:16;100775.84;;;20.66;65.44
22283;BME280;11310;51.528;21.204;2023-04-10T09:24:45;100774.69;;;20.81;64.51
22283;BME280;11310;51.528;21.204;2023-04-10T09:27:27;100778.53;;;21.12;60.16
22283;BME280;11310;51.528;21.204;2023-04-10T09:29:58;100769.31;;;21.16;62.62
22283;BME280;11310;51.528;21.204;2023-04-10T09:32:39;100773.56;;;21.19;60.98
22283;BME280;11310;51.528;21.204;2023-04-10T09:35:09;100770.22;;;21.39;62.78
22283;BME280;11310;51.528;21.204;2023-04-10T09:37:40;100764.84;;;21.61;60.80
22283;BME280;11310;51.528;21.204;2023-04-10T09:40:19;100758.81;;;21.70;54.62
22283;BME280;11310;51.528;21.204;2023-04-10T09:42:48;100756.63;;;21.75;59.63
22283;BME280;11310;51.528;21.204;2023-04-10T09:45:18;100759.88;;;21.89;59.43
22283;BME280;11310;51.528;21.204;2023-04-10T09:48:05;100759.50;;;22.05;56.46
22283;BME280;11310;51.528;21.204;2023-04-10T09:50:35;100755.13;;;22.04;58.54
22283;BME280;11310;51.528;21.204;2023-04-10T09:53:07;100749.31;;;21.99;59.09
22283;BME280;11310;51.528;21.204;2023-04-10T09:55:36;100746.13;;;22.05;57.74
22283;BME280;11310;51.528;21.204;2023-04-10T09:58:05;100742.22;;;22.09;57.31
22283;BME280;11310;51.528;21.204;2023-04-10T10:00:39;100740.25;;;22.22;56.50
22283;BME280;11310;51.528;21.204;2023-04-10T10:03:11;100744.44;;;22.35;57.22
22283;BME280;11310;51.528;21.204;2023-04-10T10:05:44;100734.28;;;22.61;55.11
22283;BME280;11310;51.528;21.204;2023-04-10T10:08:14;100736.88;;;22.51;55.64
22283;BME280;11310;51.528;21.204;2023-04-10T10:10:45;100734.16;;;22.31;55.94
22283;BME280;11310;51.528;21.204;2023-04-10T10:13:22;100734.22;;;22.51;55.90
22283;BME280;11310;51.528;21.204;2023-04-10T10:15:59;100732.34;;;22.83;51.52
22283;BME280;11310;51.528;21.204;2023-04-10T10:18:38;100729.78;;;22.82;51.88
22283;BME280;11310;51.528;21.204;2023-04-10T10:21:12;100732.91;;;23.28;54.29
22283;BME280;11310;51.528;21.204;2023-04-10T10:23:41;100731.31;;;23.55;52.53
22283;BME280;11310;51.528;21.204;2023-04-10T10:26:11;100725.19;;;23.74;52.20
22283;BME280;11310;51.528;21.204;2023-04-10T10:28:41;100718.31;;;23.81;51.89
22283;BME280;11310;51.528;21.204;2023-04-10T10:31:13;100720.81;;;23.82;51.29
22283;BME280;11310;51.528;21.204;2023-04-10T10:33:46;100717.69;;;23.68;51.24
22283;BME280;11310;51.528;21.204;2023-04-10T10:36:16;100714.91;;;23.79;52.47
22283;BME280;11310;51.528;21.204;2023-04-10T10:38:55;100708.38;;;24.11;48.23
22283;BME280;11310;51.528;21.204;2023-04-10T10:41:29;100714.97;;;23.98;50.87
22283;BME280;11310;51.528;21.204;2023-04-10T10:44:06;100710.06;;;24.31;44.98
22283;BME280;11310;51.528;21.204;2023-04-10T10:46:40;100696.78;;;24.01;48.46
22283;BME280;11310;51.528;21.204;2023-04-10T10:49:12;100689.56;;;23.43;51.13
22283;BME280;11310;51.528;21.204;2023-04-10T10:51:45;100695.91;;;23.52;51.51
22283;BME280;11310;51.528;21.204;2023-04-10T10:54:28;100691.59;;;23.70;49.12
22283;BME280;11310;51.528;21.204;2023-04-10T10:56:57;100686.75;;;23.45;52.31
22283;BME280;11310;51.528;21.204;2023-04-10T10:59:53;100686.59;;;23.95;46.63
22283;BME280;11310;51.528;21.204;2023-04-10T11:02:23;100684.06;;;24.41;49.58
22283;BME280;11310;51.528;21.204;2023-04-10T11:04:53;100680.66;;;24.49;48.44
22283;BME280;11310;51.528;21.204;2023-04-10T11:10:59;100681.06;;;23.38;43.36
22283;BME280;11310;51.528;21.204;2023-04-10T11:13:29;100668.69;;;22.46;55.12
22283;BME280;11310;51.528;21.204;2023-04-10T11:15:59;100665.19;;;21.82;57.22
22283;BME280;11310;51.528;21.204;2023-04-10T11:19:00;100666.66;;;21.75;49.59
22283;BME280;11310;51.528;21.204;2023-04-10T11:22:15;100652.06;;;22.83;49.46
22283;BME280;11310;51.528;21.204;2023-04-10T11:24:55;100658.91;;;23.36;50.74
22283;BME280;11310;51.528;21.204;2023-04-10T11:27:44;100656.34;;;23.84;45.07
22283;BME280;11310;51.528;21.204;2023-04-10T11:30:29;100654.94;;;23.80;46.94
22283;BME280;11310;51.528;21.204;2023-04-10T11:32:59;100646.41;;;24.33;48.26
22283;BME280;11310;51.528;21.204;2023-04-10T11:35:29;100643.34;;;24.84;46.71
22283;BME280;11310;51.528;21.204;2023-04-10T11:38:10;100631.38;;;25.15;41.80
22283;BME280;11310;51.528;21.204;2023-04-10T11:40:57;100644.53;;;24.34;43.78
22283;BME280;11310;51.528;21.204;2023-04-10T11:43:27;100638.34;;;23.07;50.94
22283;BME280;11310;51.528;21.204;2023-04-10T11:46:01;100629.22;;;22.07;51.19
22283;BME280;11310;51.528;21.204;2023-04-10T11:48:32;100621.09;;;21.23;55.53
22283;BME280;11310;51.528;21.204;2023-04-10T11:51:07;100620.91;;;20.69;57.54
22283;BME280;11310;51.528;21.204;2023-04-10T11:53:37;100605.34;;;20.30;60.07
22283;BME280;11310;51.528;21.204;2023-04-10T11:56:17;100610.19;;;20.02;57.83
22283;BME280;11310;51.528;21.204;2023-04-10T11:58:48;100594.13;;;20.71;57.51
22283;BME280;11310;51.528;21.204;2023-04-10T12:01:20;100597.91;;;21.66;54.22
22283;BME280;11310;51.528;21.204;2023-04-10T12:03:49;100588.03;;;22.71;51.51
22283;BME280;11310;51.528;21.204;2023-04-10T12:06:19;100601.41;;;23.40;49.13
22283;BME280;11310;51.528;21.204;2023-04-10T12:08:49;100599.72;;;23.00;49.74
22283;BME280;11310;51.528;21.204;2023-04-10T12:11:20;100590.91;;;22.38;51.06
22283;BME280;11310;51.528;21.204;2023-04-10T12:13:51;100589.47;;;21.50;52.06
22283;BME280;11310;51.528;21.204;2023-04-10T12:16:20;100586.03;;;20.61;55.69
22283;BME280;11310;51.528;21.204;2023-04-10T12:18:49;100585.91;;;19.83;58.86
22283;BME280;11310;51.528;21.204;2023-04-10T12:21:19;100584.25;;;19.10;63.32
22283;BME280;11310;51.528;21.204;2023-04-10T12:23:50;100569.25;;;18.60;65.69
22283;BME280;11310;51.528;21.204;2023-04-10T12:26:19;100572.00;;;18.34;67.08
22283;BME280;11310;51.528;21.204;2023-04-10T12:28:51;100565.16;;;18.17;67.28
22283;BME280;11310;51.528;21.204;2023-04-10T12:31:27;100554.63;;;18.03;66.16
22283;BME280;11310;51.528;21.204;2023-04-10T12:33:57;100558.44;;;17.99;67.88
22283;BME280;11310;51.528;21.204;2023-04-10T12:36:28;100554.63;;;18.03;65.86
22283;BME280;11310;51.528;21.204;2023-04-10T12:38:59;100543.72;;;18.20;64.95
22283;BME280;11310;51.528;21.204;2023-04-10T12:41:28;100546.44;;;18.94;62.88
22283;BME280;11310;51.528;21.204;2023-04-10T12:44:08;100538.19;;;20.14;59.45
22283;BME280;11310;51.528;21.204;2023-04-10T12:46:38;100541.38;;;21.19;55.29
22283;BME280;11310;51.528;21.204;2023-04-10T12:49:10;100534.91;;;21.95;52.62
22283;BME280;11310;51.528;21.204;2023-04-10T12:51:45;100542.41;;;22.72;49.48
22283;BME280;11310;51.528;21.204;2023-04-10T12:54:28;100539.44;;;23.05;45.84
22283;BME280;11310;51.528;21.204;2023-04-10T12:56:58;100546.78;;;23.13;47.40
22283;BME280;11310;51.528;21.204;2023-04-10T12:59:28;100543.69;;;23.17;46.74
22283;BME280;11310;51.528;21.204;2023-04-10T13:01:57;100531.56;;;23.04;47.66
22283;BME280;11310;51.528;21.204;2023-04-10T13:04:26;100529.84;;;22.43;48.37
22283;BME280;11310;51.528;21.204;2023-04-10T13:06:56;100525.94;;;22.17;49.67
22283;BME280;11310;51.528;21.204;2023-04-10T13:09:25;100511.31;;;22.21;49.58
22283;BME280;11310;51.528;21.204;2023-04-10T13:11:56;100522.56;;;22.75;48.42
22283;BME280;11310;51.528;21.204;2023-04-10T13:14:25;100510.56;;;23.18;46.66
22283;BME280;11310;51.528;21.204;2023-04-10T13:16:53;100512.69;;;23.05;45.56
22283;BME280;11310;51.528;21.204;2023-04-10T13:19:22;100505.91;;;23.11;46.46